首页
METAR-TAF:

METAR-TAF

机场 :

墨西哥城贝尼托·胡亚雷斯国际机场

墨西哥城, 墨西哥

纬度: 19-26N, 经度: 099-06W, 海拔: 2238米

当前天气观测

该预报发布于37分钟前的12:51 UTC
风速5节,风向东转东北
温度 14°C
湿度 72%
气压 1023 hPa
能見度: 12.9公里
天空无云

METAR: MMMX 221251Z 06005KT 8SM SKC 14/09 A3022 NOSIG RMK HZY

时间: 08:28 (13:28 UTC)

预报

该预报发布于2小时和56分钟前的10:32 UTC
预报有效从22日的 12点(UTC)到 23日的 18点(UTC)
风速6节,风向东南
能見度: 10公里
多云层高于10000英尺
从 22日的 1800点(UTC)
风速10节,风向西南
能見度: 9.7公里
散云层高于2000英尺
阴天层高于8000英尺
几率 40%
从 22日的 23点(UTC)到 23日的 03点(UTC)
能見度: 6.4公里
多云层高于2000英尺, 积雨云.
雷暴, 雨
从 23日的 0600点(UTC)
风速10节,风向西南
能見度: 10公里
散云层高于2000英尺
多云层高于20000英尺
从 23日的 1700点(UTC)
风速12节,风向
能見度: 9.7公里
散云层高于2000英尺
多云层高于8000英尺
多云层高于25000英尺

TAF: MMMX 221032Z 2212/2318 13006KT P6SM BKN100 TX29/2221Z TN14/2212Z FM221800 23010KT 6SM HZ SCT020 OVC080 PROB40 2223/2303 4SM TSRA BKN020CB FM230600 23010KT P6SM SCT020 BKN200 FM231700 35012KT 6SM HZ SCT020 BKN080 BKN250

超过4000个机场的气象观测和天气预报(METAR&TAF报告)。

可查询的气象台以黄色和红色小点在地图上表示。

将鼠标移到小点上方,可查看气象台名称。

然后点击查看天气观测和预报。

如需切换地图:点击带黑十字的绿色按钮放大地图;点击带横线的绿色按钮缩小地图;或者点击绿色箭头查看邻近地区的地图。


METAR-TAF: